Time;durP1;ratioP1;P1;durP2;ratioP2;P2;SDS_P1;SDS_P2;PMS_P1;PMS_P2;Temp;Humidity;BMP_temperature;BMP_pressure;BME280_temperature;BME280_humidity;BME280_pressure;Samples;Min_cycle;Max_cycle;Signal;HPM_P1;HPM_P2
2022/07/11 00:01:46;;;;;;;4.68;2.90;;;;;;;26.22;44.70;102264.78;5030731;28;20047;-72
2022/07/11 00:04:12;;;;;;;5.47;2.78;;;;;;;26.22;44.62;102260.31;5030931;28;20441;-72
2022/07/11 00:06:37;;;;;;;4.88;2.85;;;;;;;26.21;44.42;102258.56;5031080;28;20032;-72
2022/07/11 00:09:02;;;;;;;4.75;2.70;;;;;;;26.20;44.70;102261.28;5031298;28;20538;-72
2022/07/11 00:11:28;;;;;;;4.40;2.40;;;;;;;26.19;44.79;102262.19;5031483;28;20025;-72
2022/07/11 00:13:53;;;;;;;4.47;2.80;;;;;;;26.20;44.80;102258.59;5031468;28;20036;-72
2022/07/11 00:16:19;;;;;;;5.05;2.75;;;;;;;26.16;44.88;102260.50;5031003;28;20120;-72
2022/07/11 00:18:44;;;;;;;4.47;2.30;;;;;;;26.15;44.75;102258.75;5031213;28;22108;-72
2022/07/11 00:21:10;;;;;;;5.15;2.60;;;;;;;26.15;44.85;102260.53;5031274;28;20026;-72
2022/07/11 00:23:36;;;;;;;4.50;2.75;;;;;;;26.14;44.74;102259.66;5029970;28;20025;-72
2022/07/11 00:26:02;;;;;;;4.93;2.65;;;;;;;26.13;44.62;102257.03;5030763;28;20041;-73
2022/07/11 00:28:27;;;;;;;4.80;2.70;;;;;;;26.13;44.96;102255.25;5031139;28;20040;-72
2022/07/11 00:30:53;;;;;;;4.30;2.60;;;;;;;26.13;44.76;102254.34;5031158;28;20066;-72
2022/07/11 00:33:18;;;;;;;3.40;2.42;;;;;;;26.13;44.61;102259.69;5031168;28;20034;-72
2022/07/11 00:35:44;;;;;;;4.10;2.40;;;;;;;26.12;44.68;102250.81;5030769;28;20443;-72
2022/07/11 00:38:10;;;;;;;3.53;2.30;;;;;;;26.11;44.37;102246.38;5030894;28;20554;-71
2022/07/11 00:40:35;;;;;;;4.40;2.40;;;;;;;26.10;44.65;102243.78;5031054;28;20456;-71
2022/07/11 00:43:03;;;;;;;3.97;2.50;;;;;;;26.09;45.03;102248.25;5029678;28;20685;-71
2022/07/11 00:45:29;;;;;;;4.13;2.60;;;;;;;26.08;44.92;102246.47;5030777;28;20039;-71
2022/07/11 00:47:55;;;;;;;3.72;2.50;;;;;;;26.08;44.94;102243.81;5030184;28;20033;-71
2022/07/11 00:50:21;;;;;;;3.50;2.35;;;;;;;26.08;44.88;102241.13;5029246;28;20061;-71
2022/07/11 00:52:47;;;;;;;3.63;2.40;;;;;;;26.06;44.86;102240.28;5029588;28;20041;-71
2022/07/11 00:55:13;;;;;;;4.35;2.45;;;;;;;26.06;44.91;102236.75;5030536;28;20037;-71
2022/07/11 00:57:39;;;;;;;3.38;2.20;;;;;;;26.05;44.98;102235.88;5028920;28;20030;-72
2022/07/11 01:00:05;;;;;;;3.53;2.30;;;;;;;26.05;44.65;102233.19;5030469;28;20056;-71
2022/07/11 01:02:31;;;;;;;4.03;2.30;;;;;;;26.05;44.94;102241.22;5009420;28;20531;-71
2022/07/11 01:04:56;;;;;;;3.78;2.50;;;;;;;26.04;44.76;102231.47;5026227;28;20124;-72
2022/07/11 01:07:22;;;;;;;4.50;2.60;;;;;;;26.03;44.79;102237.72;5030280;28;20033;-71
2022/07/11 01:09:49;;;;;;;3.03;2.10;;;;;;;26.01;44.81;102234.22;5029256;28;20120;-71
2022/07/11 01:12:15;;;;;;;3.95;2.15;;;;;;;26.01;44.96;102231.53;5030425;28;20107;-71
2022/07/11 01:14:53;;;;;;;4.00;2.20;;;;;;;26.02;44.89;102235.09;5030370;28;20041;-71
2022/07/11 01:17:19;;;;;;;3.67;2.10;;;;;;;25.99;44.81;102238.72;5030350;28;20730;-71
2022/07/11 01:19:44;;;;;;;3.92;2.08;;;;;;;25.99;44.95;102228.03;5030028;28;20108;-71
2022/07/11 01:22:13;;;;;;;3.35;2.10;;;;;;;25.99;44.75;102228.03;5029545;28;20117;-71
2022/07/11 01:24:39;;;;;;;3.92;2.30;;;;;;;25.98;44.68;102220.97;5029989;28;20104;-71
2022/07/11 01:27:05;;;;;;;4.55;2.30;;;;;;;25.97;44.98;102219.19;5011821;28;20120;-71
2022/07/11 01:29:30;;;;;;;3.22;2.15;;;;;;;25.98;44.81;102226.31;5028767;28;20048;-71
2022/07/11 01:31:56;;;;;;;3.38;2.28;;;;;;;25.97;44.37;102216.53;5029562;28;20045;-71
2022/07/11 01:34:21;;;;;;;3.60;2.20;;;;;;;25.97;44.82;102212.97;5028717;28;20037;-71
2022/07/11 01:36:47;;;;;;;3.47;2.10;;;;;;;25.97;44.79;102218.31;5029985;28;20065;-71
2022/07/11 01:39:12;;;;;;;4.07;2.20;;;;;;;25.96;44.82;102217.44;5030053;28;20116;-71
2022/07/11 01:41:37;;;;;;;3.83;2.15;;;;;;;25.95;44.91;102217.47;5029891;28;20079;-71
2022/07/11 01:44:03;;;;;;;3.72;2.30;;;;;;;25.94;44.97;102213.06;5029313;28;20049;-71
2022/07/11 01:46:28;;;;;;;3.10;2.10;;;;;;;25.95;45.03;102225.50;5011374;28;20029;-71
2022/07/11 01:48:54;;;;;;;4.38;2.25;;;;;;;25.94;45.07;102221.06;5029395;28;20395;-71
2022/07/11 01:51:19;;;;;;;4.20;2.40;;;;;;;25.95;44.90;102226.38;5029269;28;20057;-71
2022/07/11 01:53:44;;;;;;;3.22;2.20;;;;;;;25.94;45.00;102218.41;5029003;28;20033;-72
2022/07/11 01:56:10;;;;;;;3.00;2.10;;;;;;;25.94;44.92;102226.41;5029391;28;20077;-71
2022/07/11 01:58:35;;;;;;;3.60;2.05;;;;;;;25.93;44.85;102222.88;5028798;28;20467;-71
2022/07/11 02:01:01;;;;;;;3.72;2.38;;;;;;;25.93;44.72;102227.31;5029455;28;20084;-71
2022/07/11 02:03:26;;;;;;;3.00;2.00;;;;;;;25.91;44.95;102227.41;5029317;28;20044;-71
2022/07/11 02:05:52;;;;;;;3.80;2.20;;;;;;;25.89;44.87;102233.69;5029485;28;20080;-71
2022/07/11 02:08:17;;;;;;;2.90;2.08;;;;;;;25.89;44.98;102234.56;5027840;28;20365;-71
2022/07/11 02:10:48;;;;;;;3.20;2.17;;;;;;;25.89;44.87;102220.34;5029373;28;20041;-72
2022/07/11 02:13:15;;;;;;;2.85;2.00;;;;;;;25.90;44.81;102236.31;5029300;28;20033;-71
2022/07/11 02:15:42;;;;;;;4.07;1.90;;;;;;;25.88;44.90;102230.13;5029068;28;20026;-71
2022/07/11 02:18:08;;;;;;;3.45;2.20;;;;;;;25.88;44.94;102226.59;5028964;28;20034;-71
2022/07/11 02:20:35;;;;;;;3.42;2.03;;;;;;;25.86;44.79;102227.50;5029023;28;20029;-71
2022/07/11 02:23:01;;;;;;;2.78;1.88;;;;;;;25.87;44.80;102231.06;5029114;28;20033;-71
2022/07/11 02:25:27;;;;;;;3.38;1.92;;;;;;;25.88;44.71;102227.47;5029142;28;20025;-71
2022/07/11 02:27:52;;;;;;;3.65;2.03;;;;;;;25.85;44.90;102231.13;5027566;28;20094;-71
2022/07/11 02:30:18;;;;;;;3.45;2.17;;;;;;;25.88;44.94;102231.94;5029203;28;20447;-71
2022/07/11 02:32:43;;;;;;;3.08;2.00;;;;;;;25.85;44.92;102230.25;5029110;28;20036;-71
2022/07/11 02:35:09;;;;;;;3.65;2.00;;;;;;;25.86;44.87;102226.63;5029203;28;20094;-71
2022/07/11 02:37:35;;;;;;;3.00;1.83;;;;;;;25.85;44.84;102230.25;5029108;28;20029;-71
2022/07/11 02:40:01;;;;;;;2.90;1.95;;;;;;;25.86;44.87;102219.50;5032957;28;20048;-71
2022/07/11 02:42:26;;;;;;;3.95;2.10;;;;;;;25.86;44.84;102226.63;5033076;28;20029;-71
2022/07/11 02:44:52;;;;;;;2.85;2.00;;;;;;;25.84;44.96;102223.16;5033347;28;20096;-71
2022/07/11 02:47:17;;;;;;;2.80;1.90;;;;;;;25.85;45.07;102225.78;5032364;28;20400;-71
2022/07/11 02:49:42;;;;;;;2.80;1.85;;;;;;;25.84;44.91;102231.16;5032482;28;20160;-71
2022/07/11 02:52:08;;;;;;;3.10;1.90;;;;;;;25.82;44.75;102233.00;5032005;28;20059;-71
2022/07/11 02:54:33;;;;;;;2.58;1.80;;;;;;;25.83;44.91;102227.59;5032910;28;20037;-71
2022/07/11 02:56:59;;;;;;;3.53;2.03;;;;;;;25.83;44.95;102226.72;5032342;28;20111;-71
2022/07/11 02:59:24;;;;;;;2.47;1.83;;;;;;;25.82;44.90;102225.84;5032742;28;20383;-71
2022/07/11 03:01:50;;;;;;;3.08;2.00;;;;;;;25.80;45.11;102227.69;5032996;28;20070;-71
2022/07/11 03:04:16;;;;;;;2.80;2.00;;;;;;;25.81;44.84;102226.78;5032728;28;20029;-71
2022/07/11 03:06:41;;;;;;;2.42;1.90;;;;;;;25.81;45.03;102232.09;5030725;28;20033;-71
2022/07/11 03:09:08;;;;;;;2.70;1.75;;;;;;;25.79;44.85;102228.63;5032653;28;20029;-71
2022/07/11 03:11:33;;;;;;;2.83;1.90;;;;;;;25.80;44.95;102232.16;5032878;28;20017;-71
2022/07/11 03:14:00;;;;;;;2.95;1.70;;;;;;;25.79;44.74;102227.75;5032295;28;20542;-71
2022/07/11 03:16:27;;;;;;;2.55;1.70;;;;;;;25.80;44.99;102234.81;5032534;28;20501;-71
2022/07/11 03:18:52;;;;;;;2.55;1.75;;;;;;;25.78;45.11;102228.66;5032706;28;20036;-71
2022/07/11 03:21:17;;;;;;;3.65;1.90;;;;;;;25.76;45.03;102231.38;5030532;28;20363;-71
2022/07/11 03:23:43;;;;;;;3.72;2.00;;;;;;;25.76;44.92;102231.38;5032434;28;20079;-71
2022/07/11 03:26:08;;;;;;;2.97;1.70;;;;;;;25.79;44.94;102225.06;5032404;28;20018;-71
2022/07/11 03:28:33;;;;;;;3.03;1.70;;;;;;;25.78;44.92;102228.66;5032142;28;20026;-71
2022/07/11 03:30:59;;;;;;;2.70;1.80;;;;;;;25.75;45.20;102226.06;5031501;28;20454;-71
2022/07/11 03:33:24;;;;;;;3.65;1.60;;;;;;;25.76;44.88;102227.81;5031998;28;20032;-71
2022/07/11 03:35:50;;;;;;;3.50;1.85;;;;;;;25.78;45.07;102217.97;5032139;28;20377;-71
2022/07/11 03:38:19;;;;;;;3.40;1.90;;;;;;;25.78;44.79;102217.97;5030820;28;20029;-71
2022/07/11 03:40:44;;;;;;;2.45;1.73;;;;;;;25.77;44.84;102219.78;5030871;28;20025;-71
2022/07/11 03:43:09;;;;;;;2.75;1.92;;;;;;;25.75;45.06;102223.38;5031941;28;20584;-71
2022/07/11 03:45:36;;;;;;;2.33;1.65;;;;;;;25.75;45.01;102223.38;5031951;28;20032;-71
2022/07/11 03:48:01;;;;;;;2.97;2.00;;;;;;;25.76;45.08;102225.16;5032045;28;20032;-71
2022/07/11 03:50:27;;;;;;;3.35;1.90;;;;;;;25.73;44.76;102223.47;5029205;28;20136;-72
2022/07/11 03:52:52;;;;;;;2.40;1.70;;;;;;;25.73;44.72;102223.47;5032104;28;20038;-71
2022/07/11 03:55:18;;;;;;;2.60;1.80;;;;;;;25.73;44.98;102227.91;5013666;28;20025;-71
2022/07/11 03:57:43;;;;;;;2.85;1.90;;;;;;;25.74;44.92;102224.31;5032092;28;20075;-71
2022/07/11 04:00:09;;;;;;;2.50;1.75;;;;;;;25.73;44.90;102242.16;5013907;28;20495;-71
2022/07/11 04:02:35;;;;;;;2.53;1.90;;;;;;;25.72;45.10;102229.72;5030031;28;20040;-71
2022/07/11 04:05:01;;;;;;;2.78;1.88;;;;;;;25.72;44.97;102237.72;5029947;28;20132;-71
2022/07/11 04:07:28;;;;;;;2.95;1.70;;;;;;;25.71;44.89;102230.63;5031349;28;20040;-71
2022/07/11 04:09:54;;;;;;;2.92;1.80;;;;;;;25.69;44.81;102236.91;5031565;28;20038;-71
2022/07/11 04:12:19;;;;;;;2.83;1.60;;;;;;;25.71;44.87;102232.41;5031727;28;20034;-72
2022/07/11 04:14:44;;;;;;;2.47;1.50;;;;;;;25.71;44.97;102235.97;5030710;28;20087;-71
2022/07/11 04:17:10;;;;;;;2.60;1.70;;;;;;;25.69;44.72;102227.13;5031491;28;20633;-71
2022/07/11 04:19:35;;;;;;;2.45;1.50;;;;;;;25.69;45.00;102223.56;5031239;28;20479;-71
2022/07/11 04:22:01;;;;;;;2.70;1.70;;;;;;;25.71;44.93;102232.41;5031337;28;20119;-71
2022/07/11 04:24:26;;;;;;;2.85;1.88;;;;;;;25.72;44.89;102232.38;5029144;28;20034;-71
2022/07/11 04:26:52;;;;;;;3.10;1.98;;;;;;;25.70;44.81;102231.53;5031369;28;20063;-71
2022/07/11 04:29:17;;;;;;;2.80;1.77;;;;;;;25.68;44.80;102236.03;5031220;28;20026;-71
2022/07/11 04:31:42;;;;;;;2.80;1.70;;;;;;;25.69;44.73;102231.56;5031243;28;20116;-71
2022/07/11 04:34:08;;;;;;;2.70;1.70;;;;;;;25.68;44.99;102240.50;5029324;28;20033;-71
2022/07/11 04:36:33;;;;;;;2.30;1.70;;;;;;;25.67;45.01;102228.97;5029554;28;20029;-71
2022/07/11 04:38:58;;;;;;;2.53;1.65;;;;;;;25.67;44.98;102231.66;5029715;28;20537;-71
2022/07/11 04:41:24;;;;;;;2.10;1.60;;;;;;;25.67;44.86;102237.00;5029800;28;20602;-71
2022/07/11 04:43:49;;;;;;;2.67;1.80;;;;;;;25.68;44.94;102238.72;5030359;28;20814;-71
2022/07/11 04:46:15;;;;;;;2.63;1.65;;;;;;;25.66;44.92;102235.22;5030930;28;20021;-71
2022/07/11 04:48:40;;;;;;;2.35;1.60;;;;;;;25.68;44.67;102241.38;5030914;28;20035;-71
2022/07/11 04:51:06;;;;;;;2.35;1.58;;;;;;;25.66;44.89;102234.34;5030774;28;20184;-72
2022/07/11 04:53:32;;;;;;;2.63;1.60;;;;;;;25.65;44.84;102241.47;5030657;28;20057;-70
2022/07/11 04:55:57;;;;;;;3.22;1.52;;;;;;;25.65;44.88;102235.25;5028649;28;20090;-71
2022/07/11 04:58:23;;;;;;;2.45;1.73;;;;;;;25.66;44.94;102237.03;5030877;28;20022;-71
2022/07/11 05:00:48;;;;;;;2.00;1.55;;;;;;;25.67;44.91;102233.44;5029797;28;20261;-71
2022/07/11 05:03:14;;;;;;;2.40;1.60;;;;;;;25.65;45.03;102241.47;5029800;28;20468;-72
2022/07/11 05:05:40;;;;;;;2.13;1.50;;;;;;;25.63;44.96;102240.63;5030443;28;20109;-72
2022/07/11 05:08:06;;;;;;;2.20;1.60;;;;;;;25.65;44.94;102243.28;5030190;28;20473;-72
2022/07/11 05:10:33;;;;;;;1.80;1.50;;;;;;;25.63;44.85;102240.63;5030268;28;20470;-72
2022/07/11 05:12:59;;;;;;;2.40;1.70;;;;;;;25.63;44.99;102248.66;5028624;28;20029;-72
2022/07/11 05:15:24;;;;;;;1.80;1.50;;;;;;;25.63;44.78;102247.78;5030191;28;20052;-72
2022/07/11 05:17:49;;;;;;;2.42;1.67;;;;;;;25.63;44.77;102258.47;5030163;28;20041;-72
2022/07/11 05:20:15;;;;;;;2.50;1.60;;;;;;;25.63;45.02;102253.13;5030118;28;20380;-72
2022/07/11 05:22:41;;;;;;;2.50;1.50;;;;;;;25.63;45.13;102254.00;5029334;28;20051;-72
2022/07/11 05:25:07;;;;;;;2.00;1.50;;;;;;;25.63;44.76;102261.13;5030056;28;20029;-72
2022/07/11 05:27:32;;;;;;;2.15;1.65;;;;;;;25.63;44.78;102258.47;5028522;28;20040;-72
2022/07/11 05:29:57;;;;;;;3.20;1.70;;;;;;;25.61;45.04;102254.97;5030057;28;20025;-72
2022/07/11 05:32:23;;;;;;;2.20;1.60;;;;;;;25.64;44.95;102265.56;5030021;28;20040;-72
2022/07/11 05:34:48;;;;;;;2.17;1.67;;;;;;;25.63;45.16;102259.34;5029384;28;20507;-70
2022/07/11 05:37:13;;;;;;;2.20;1.63;;;;;;;25.62;44.96;102256.69;5029887;28;20025;-70
2022/07/11 05:39:39;;;;;;;2.95;1.60;;;;;;;25.62;45.01;102262.91;5028451;28;20172;-70
2022/07/11 05:42:05;;;;;;;2.92;1.83;;;;;;;25.60;44.96;102259.44;5029796;28;20068;-71
2022/07/11 05:44:30;;;;;;;2.55;1.40;;;;;;;25.62;44.96;102262.91;5029305;28;20045;-71
2022/07/11 05:47:02;;;;;;;2.83;1.60;;;;;;;25.63;44.87;102266.47;5029943;28;20025;-70
2022/07/11 05:49:31;;;;;;;2.03;1.60;;;;;;;25.65;45.05;102256.63;5029341;28;20025;-71
2022/07/11 05:51:56;;;;;;;2.08;1.40;;;;;;;25.62;45.20;102265.59;5028925;28;20069;-71
2022/07/11 05:54:22;;;;;;;3.30;1.55;;;;;;;25.64;45.14;102266.44;5029617;28;20569;-70
2022/07/11 05:56:47;;;;;;;3.03;1.30;;;;;;;25.63;44.84;102264.69;5029189;28;20038;-72
2022/07/11 05:59:14;;;;;;;3.40;1.50;;;;;;;25.65;45.12;102261.97;5029445;28;20399;-72
2022/07/11 06:01:39;;;;;;;2.50;1.52;;;;;;;25.65;45.14;102264.66;5027863;28;20033;-71
2022/07/11 06:04:04;;;;;;;2.10;1.40;;;;;;;25.64;45.25;102265.56;5029332;28;20494;-71
2022/07/11 06:06:30;;;;;;;1.85;1.40;;;;;;;25.64;44.79;102262.88;5029226;28;20047;-72
2022/07/11 06:08:55;;;;;;;1.90;1.50;;;;;;;25.64;45.12;102263.75;5029098;28;20396;-72
2022/07/11 06:11:21;;;;;;;1.83;1.42;;;;;;;25.64;45.02;102270.91;5028747;28;20033;-71
2022/07/11 06:13:48;;;;;;;2.35;1.50;;;;;;;25.64;44.92;102271.78;5027595;28;20041;-71
2022/07/11 06:16:14;;;;;;;2.80;1.60;;;;;;;25.65;45.28;102269.97;5028026;28;20144;-71
2022/07/11 06:18:40;;;;;;;2.55;1.40;;;;;;;25.65;45.26;102267.31;5028158;28;20041;-70
2022/07/11 06:21:05;;;;;;;1.70;1.40;;;;;;;25.66;45.15;102269.94;5029495;28;20199;-70
2022/07/11 06:23:31;;;;;;;2.13;1.45;;;;;;;25.65;45.25;102262.84;5027657;28;20025;-71
2022/07/11 06:25:57;;;;;;;2.25;1.40;;;;;;;25.66;45.18;102269.06;5029277;28;20026;-70
2022/07/11 06:28:23;;;;;;;2.15;1.50;;;;;;;25.66;44.96;102264.63;5026117;28;20033;-70
2022/07/11 06:30:49;;;;;;;2.22;1.50;;;;;;;25.65;45.27;102270.88;5027805;28;20040;-70
2022/07/11 06:33:16;;;;;;;2.40;1.40;;;;;;;25.65;45.09;102265.53;5027666;28;20053;-72
2022/07/11 06:35:41;;;;;;;1.70;1.40;;;;;;;25.67;44.95;102268.16;5027695;28;20032;-69
2022/07/11 06:38:07;;;;;;;3.97;1.40;;;;;;;25.66;45.33;102258.38;5028531;28;20463;-69
2022/07/11 06:40:33;;;;;;;3.20;1.13;;;;;;;25.66;45.32;102261.06;5024644;28;20065;-69
2022/07/11 06:42:58;;;;;;;3.63;1.40;;;;;;;25.65;45.61;102262.84;5028976;28;20554;-69
2022/07/11 06:45:23;;;;;;;4.57;1.50;;;;;;;25.66;45.56;102259.28;5028614;28;20026;-70
2022/07/11 06:47:49;;;;;;;2.88;1.40;;;;;;;25.65;45.66;102260.19;5028526;28;20503;-71
2022/07/11 06:50:14;;;;;;;5.55;1.50;;;;;;;25.64;45.30;102254.88;5028121;28;20056;-70
2022/07/11 06:52:39;;;;;;;3.72;1.40;;;;;;;25.66;45.58;102253.94;5011047;28;20403;-70
2022/07/11 06:55:05;;;;;;;2.83;1.40;;;;;;;25.65;45.56;102245.94;5027478;28;20060;-69
2022/07/11 06:57:30;;;;;;;3.25;1.60;;;;;;;25.66;45.53;102253.03;5026885;28;20041;-71
2022/07/11 06:59:56;;;;;;;3.20;1.30;;;;;;;25.67;45.33;102252.13;5027474;28;20033;-67
2022/07/11 07:02:26;;;;;;;2.72;1.33;;;;;;;25.69;45.55;102256.50;5028773;28;20028;-66
2022/07/11 07:04:51;;;;;;;4.65;1.58;;;;;;;25.67;45.85;102263.69;5028967;28;20053;-68
2022/07/11 07:07:16;;;;;;;4.25;1.48;;;;;;;25.68;45.37;102262.75;5028420;28;20057;-68
2022/07/11 07:09:42;;;;;;;4.22;1.42;;;;;;;25.64;45.66;102273.56;5029021;28;20024;-69
2022/07/11 07:12:07;;;;;;;3.42;1.40;;;;;;;25.63;45.66;102261.13;5024248;28;20029;-67
2022/07/11 07:14:32;;;;;;;2.78;1.10;;;;;;;25.69;46.32;102274.31;5025078;28;20030;-69
2022/07/11 07:16:58;;;;;;;8.90;1.50;;;;;;;25.73;46.20;102274.22;5025941;28;20033;-68
2022/07/11 07:19:23;;;;;;;6.90;1.20;;;;;;;25.74;46.56;102275.94;5024467;28;20036;-69
2022/07/11 07:21:48;;;;;;;4.22;1.20;;;;;;;25.76;46.69;102281.25;5025165;28;20041;-69
2022/07/11 07:24:14;;;;;;;2.90;1.10;;;;;;;25.86;46.68;102288.97;5026433;28;20037;-68
2022/07/11 07:26:39;;;;;;;5.13;1.13;;;;;;;25.90;46.66;102287.09;5022243;28;20033;-69
2022/07/11 07:29:05;;;;;;;7.55;1.20;;;;;;;25.93;47.14;102294.13;5027853;28;20033;-67
2022/07/11 07:31:30;;;;;;;3.85;1.15;;;;;;;25.93;46.52;102292.34;5023417;28;20124;-69
2022/07/11 07:33:55;;;;;;;4.85;1.05;;;;;;;25.98;46.17;102301.13;5023337;28;20488;-68
2022/07/11 07:36:21;;;;;;;4.20;1.15;;;;;;;25.98;46.32;102294.91;5023775;28;20033;-68
2022/07/11 07:38:49;;;;;;;7.93;1.02;;;;;;;26.00;46.36;102293.94;5029129;28;20459;-68
2022/07/11 07:41:15;;;;;;;5.55;1.25;;;;;;;26.13;46.10;102289.97;5029048;28;20391;-68
2022/07/11 07:43:41;;;;;;;3.85;1.20;;;;;;;26.13;46.55;102291.78;5029898;28;20025;-68
2022/07/11 07:46:09;;;;;;;5.30;1.20;;;;;;;26.20;46.13;102290.69;5029436;28;20041;-71
2022/07/11 07:48:34;;;;;;;4.18;1.33;;;;;;;26.17;46.33;102285.41;5027359;28;20026;-70
2022/07/11 07:51:00;;;;;;;6.22;1.30;;;;;;;26.17;46.04;102294.31;5027416;28;20102;-71
2022/07/11 07:53:25;;;;;;;4.15;1.10;;;;;;;26.17;45.98;102296.97;5029169;28;20076;-70
2022/07/11 07:55:51;;;;;;;8.48;1.20;;;;;;;26.21;46.28;102295.13;5029006;28;20128;-71
2022/07/11 07:58:17;;;;;;;8.50;1.20;;;;;;;26.24;45.98;102295.03;5028890;28;20038;-68
2022/07/11 08:03:26;;;;;;;7.50;1.20;;;;;;;26.34;45.88;102293.88;5029047;28;20383;-68
2022/07/11 08:05:52;;;;;;;6.28;1.05;;;;;;;26.44;45.54;102297.13;5029111;28;20144;-69
2022/07/11 08:08:17;;;;;;;2.17;1.08;;;;;;;26.40;45.60;102301.72;5026988;28;20136;-68
2022/07/11 08:10:42;;;;;;;11.43;1.15;;;;;;;26.34;45.89;102298.34;5028454;28;20392;-71
2022/07/11 08:13:08;;;;;;;6.05;0.98;;;;;;;26.30;46.02;102299.34;5028138;28;20029;-71
2022/07/11 08:15:34;;;;;;;10.38;0.93;;;;;;;26.30;46.19;102304.69;5027400;28;20025;-70
2022/07/11 08:17:59;;;;;;;4.63;1.00;;;;;;;26.21;46.22;102308.47;5026639;28;20041;-70
2022/07/11 08:20:24;;;;;;;3.15;1.00;;;;;;;26.16;46.22;102303.28;5028369;28;20029;-70
2022/07/11 08:22:50;;;;;;;5.88;1.20;;;;;;;26.16;46.54;102297.94;5027760;28;20111;-70
2022/07/11 08:25:15;;;;;;;6.50;1.10;;;;;;;26.12;46.52;102298.03;5028609;28;20857;-69
2022/07/11 08:27:41;;;;;;;5.30;1.20;;;;;;;26.12;46.61;102295.38;5028718;28;20832;-70
2022/07/11 08:30:08;;;;;;;5.72;1.00;;;;;;;26.11;46.54;102301.63;5028664;28;20041;-70
2022/07/11 08:32:33;;;;;;;2.97;1.02;;;;;;;26.10;46.24;102302.56;5027271;28;20037;-69
2022/07/11 08:34:59;;;;;;;2.80;0.90;;;;;;;26.07;46.34;102308.00;5028362;28;20044;-69
2022/07/11 08:37:24;;;;;;;2.17;1.10;;;;;;;26.08;46.48;102299.06;5026787;28;20075;-69
2022/07/11 08:39:50;;;;;;;3.20;1.02;;;;;;;26.07;46.29;102297.31;5027768;28;20128;-70
2022/07/11 08:42:19;;;;;;;3.42;1.20;;;;;;;26.10;46.35;102295.44;5026900;28;20034;-70
2022/07/11 08:44:44;;;;;;;3.78;1.00;;;;;;;26.13;46.22;102295.34;5028030;28;20116;-70
2022/07/11 08:47:11;;;;;;;3.08;1.00;;;;;;;26.25;45.96;102291.47;5026946;28;20040;-71
2022/07/11 08:49:36;;;;;;;2.97;0.85;;;;;;;26.32;45.54;102293.03;5027899;28;20029;-70
2022/07/11 08:52:02;;;;;;;2.92;0.90;;;;;;;26.33;45.61;102294.78;5027795;28;20072;-70
2022/07/11 08:54:28;;;;;;;2.72;0.80;;;;;;;26.31;45.57;102291.28;5027407;28;20102;-70
2022/07/11 08:56:55;;;;;;;3.40;0.90;;;;;;;26.32;45.47;102286.81;5027371;28;20037;-70
2022/07/11 08:59:22;;;;;;;1.88;0.75;;;;;;;26.32;45.52;102286.81;5027950;28;20059;-70
2022/07/11 09:01:51;;;;;;;2.85;0.93;;;;;;;26.32;45.42;102292.16;5027431;28;20467;-71
2022/07/11 09:04:17;;;;;;;4.68;0.90;;;;;;;26.30;45.55;102283.28;5027827;28;20056;-70
2022/07/11 09:06:42;;;;;;;3.58;0.80;;;;;;;26.27;45.56;102280.72;5025908;28;20037;-71
2022/07/11 09:09:08;;;;;;;2.50;0.80;;;;;;;26.28;45.50;102285.16;5027200;28;20099;-71
2022/07/11 09:11:53;;;;;;;5.25;0.93;;;;;;;26.25;45.53;102276.28;5026904;28;20648;-71
2022/07/11 09:14:25;;;;;;;1.40;0.77;;;;;;;26.23;45.53;102288.81;5027390;28;20041;-71
2022/07/11 09:16:53;;;;;;;3.75;0.95;;;;;;;26.19;45.69;102292.47;5027168;28;20109;-71
2022/07/11 09:19:30;;;;;;;2.40;0.90;;;;;;;26.16;45.75;102297.06;5026084;28;20056;-70
2022/07/11 09:25:20;;;;;;;2.75;0.90;;;;;;;26.27;45.61;102299.44;5025228;28;20103;-71
2022/07/11 09:27:51;;;;;;;2.30;0.88;;;;;;;26.32;45.42;102297.50;5024771;28;20029;-71
2022/07/11 09:30:25;;;;;;;2.75;0.82;;;;;;;26.29;45.36;102303.81;5027284;28;20032;-71
2022/07/11 09:33:04;;;;;;;2.83;0.80;;;;;;;26.27;45.74;102305.66;5027116;28;20039;-71
2022/07/11 09:35:34;;;;;;;1.05;0.70;;;;;;;26.28;45.32;102303.88;5026059;28;20029;-71
2022/07/11 09:38:03;;;;;;;2.65;0.80;;;;;;;26.27;45.49;102308.34;5027175;28;20032;-70
2022/07/11 09:40:29;;;;;;;1.92;0.77;;;;;;;26.26;45.53;102306.59;5025065;28;20480;-71
2022/07/11 09:42:56;;;;;;;1.67;0.70;;;;;;;26.21;45.52;102298.66;5026615;28;20044;-71
2022/07/11 09:45:26;;;;;;;1.20;0.70;;;;;;;26.21;45.78;102300.47;5026880;28;20029;-71
2022/07/11 09:47:54;;;;;;;1.45;0.73;;;;;;;26.17;45.74;102302.31;5026322;28;20488;-71
2022/07/11 09:50:26;;;;;;;1.58;0.70;;;;;;;26.14;45.63;102298.88;5026526;28;20037;-71
2022/07/11 09:53:05;;;;;;;1.65;0.70;;;;;;;26.15;45.84;102295.28;5026727;28;20038;-70
2022/07/11 09:55:32;;;;;;;2.10;0.70;;;;;;;26.17;45.70;102301.44;5026723;28;20048;-71
2022/07/11 09:57:58;;;;;;;2.05;0.70;;;;;;;26.15;45.74;102301.53;5026655;28;20036;-70
2022/07/11 10:00:24;;;;;;;2.13;0.70;;;;;;;26.17;45.43;102296.09;5026424;28;20032;-70
2022/07/11 10:02:51;;;;;;;1.75;0.70;;;;;;;26.21;45.43;102295.13;5026307;28;20033;-71
2022/07/11 10:05:17;;;;;;;1.60;0.80;;;;;;;26.20;45.72;102299.59;5026983;28;20104;-70
2022/07/11 10:07:42;;;;;;;1.70;0.80;;;;;;;26.18;45.49;102300.53;5027077;28;20664;-70
2022/07/11 10:10:10;;;;;;;1.02;0.60;;;;;;;26.21;45.29;102300.47;5025350;28;20021;-71
2022/07/11 10:12:36;;;;;;;1.48;0.68;;;;;;;26.19;45.53;102297.81;4991052;28;20064;-71
2022/07/11 10:15:06;;;;;;;1.83;0.68;;;;;;;26.13;45.66;102306.03;5026188;28;20440;-70
2022/07/11 10:17:48;;;;;;;1.55;0.70;;;;;;;26.19;45.55;102303.16;5026578;28;20093;-70
2022/07/11 10:20:22;;;;;;;2.00;0.60;;;;;;;26.17;45.77;102304.13;5026432;28;20476;-70
2022/07/11 10:22:57;;;;;;;1.77;0.80;;;;;;;26.13;45.58;102297.13;5026419;28;20136;-71
2022/07/11 10:25:33;;;;;;;1.08;0.70;;;;;;;26.11;45.85;102309.66;5026392;28;20017;-70
2022/07/11 10:28:08;;;;;;;1.25;0.68;;;;;;;26.09;45.61;102307.03;5026358;28;20387;-70
2022/07/11 10:30:59;;;;;;;1.23;0.63;;;;;;;26.13;45.63;102307.81;5024281;28;20111;-71
2022/07/11 10:33:26;;;;;;;1.00;0.60;;;;;;;26.15;45.52;102300.63;5025180;28;20041;-71
2022/07/11 10:35:53;;;;;;;1.60;0.60;;;;;;;26.13;45.51;102303.34;5025004;28;20038;-71
2022/07/11 10:38:19;;;;;;;1.83;0.55;;;;;;;26.12;45.69;102300.72;5026431;28;20756;-71
2022/07/11 10:40:48;;;;;;;1.30;0.63;;;;;;;26.12;45.59;102298.91;5026024;28;20033;-71
2022/07/11 10:43:32;;;;;;;1.15;0.63;;;;;;;26.14;45.55;102298.88;5026439;28;20031;-71
2022/07/11 10:45:59;;;;;;;1.98;0.50;;;;;;;26.13;45.52;102300.69;5026135;28;20032;-70
2022/07/11 10:48:25;;;;;;;1.30;0.60;;;;;;;26.11;45.63;102294.50;5008527;28;20030;-71
2022/07/11 10:51:21;;;;;;;1.85;0.55;;;;;;;26.10;45.67;102302.56;5025464;28;20072;-71
2022/07/11 10:53:48;;;;;;;0.75;0.50;;;;;;;26.12;45.84;102306.06;5024095;28;20080;-70
2022/07/11 10:56:41;;;;;;;1.33;0.70;;;;;;;26.11;45.54;102307.84;5025305;28;20032;-70
2022/07/11 10:59:17;;;;;;;0.73;0.50;;;;;;;26.06;45.67;102314.25;5027362;28;20479;-71
2022/07/11 11:02:02;;;;;;;0.90;0.60;;;;;;;26.09;45.49;102306.16;5029403;28;20107;-71
2022/07/11 11:04:42;;;;;;;0.68;0.57;;;;;;;26.10;45.72;102307.91;5029799;28;20029;-71
2022/07/11 11:07:31;;;;;;;0.90;0.50;;;;;;;26.15;45.42;102316.69;5029028;28;20097;-70
2022/07/11 11:09:59;;;;;;;0.60;0.50;;;;;;;26.13;45.54;102314.03;5026307;28;20048;-70
2022/07/11 11:13:06;;;;;;;0.77;0.50;;;;;;;26.12;45.76;102320.31;5029055;28;20037;-71
2022/07/11 11:15:42;;;;;;;0.80;0.50;;;;;;;26.10;45.76;102319.50;5029841;28;20030;-71
2022/07/11 11:18:23;;;;;;;1.40;0.60;;;;;;;26.11;45.61;102323.00;5029855;28;20053;-70
2022/07/11 11:20:57;;;;;;;0.60;0.50;;;;;;;26.08;45.55;102318.66;5029477;28;20037;-70
2022/07/11 11:23:23;;;;;;;0.57;0.50;;;;;;;26.07;45.59;102321.34;5028556;28;20040;-71
2022/07/11 11:25:52;;;;;;;1.20;0.60;;;;;;;26.08;45.62;102325.78;5029917;28;20059;-71
2022/07/11 11:28:21;;;;;;;0.77;0.50;;;;;;;26.08;45.73;102323.13;5030004;28;20107;-71
2022/07/11 11:30:57;;;;;;;0.70;0.55;;;;;;;26.10;45.56;102323.97;5028825;28;20167;-71